createdAt,value
2022-10-13T00:00:43.671Z,100970.69
2022-10-13T00:01:50.851Z,100982.12
2022-10-13T00:02:58.099Z,100975.17
2022-10-13T00:04:02.134Z,100850.82
2022-10-13T00:05:58.718Z,100975.06
2022-10-13T00:06:20.018Z,100970.69
2022-10-13T00:07:27.740Z,100975.17
2022-10-13T00:08:34.518Z,100973.48
2022-10-13T00:09:41.793Z,100971.65
2022-10-13T00:10:53.237Z,100974.33
2022-10-13T00:11:58.743Z,100981.63
2022-10-13T00:13:04.280Z,100966.43
2022-10-13T00:14:11.386Z,100975.42
2022-10-13T00:15:19.781Z,100975.57
2022-10-13T00:16:25.358Z,100977.27
2022-10-13T00:17:36.073Z,100969.33
2022-10-13T00:18:38.619Z,100977.27
2022-10-13T00:19:43.856Z,100977.27
2022-10-13T00:20:51.971Z,100979.83
2022-10-13T00:21:55.984Z,100978.00
2022-10-13T00:23:00.041Z,100978.00
2022-10-13T00:24:05.860Z,100973.48
2022-10-13T00:25:11.529Z,100979.69
2022-10-13T00:26:17.792Z,100978.00
2022-10-13T00:27:28.348Z,100974.33
2022-10-13T00:57:40.245Z,100968.25
2022-10-13T00:58:47.435Z,100961.06
2022-10-13T00:59:52.060Z,100961.06
2022-10-13T01:00:59.551Z,100961.94
2022-10-13T01:02:04.530Z,100960.84
2022-10-13T01:03:08.390Z,100908.48
2022-10-13T01:04:22.664Z,100958.86
2022-10-13T01:05:26.702Z,100958.86
2022-10-13T01:06:31.463Z,100958.75
2022-10-13T01:27:40.318Z,100959.73
2022-10-13T01:29:10.056Z,100957.92
2022-10-13T01:50:28.798Z,100965.23
2022-10-13T01:51:43.491Z,100953.64
2022-10-13T01:53:01.044Z,100964.14
2022-10-13T01:54:13.135Z,100958.78
2022-10-13T01:55:13.946Z,100950.50
2022-10-13T01:56:22.269Z,100961.92
2022-10-13T01:57:34.969Z,100958.28
2022-10-13T01:58:41.374Z,100958.28
2022-10-13T01:59:47.308Z,100960.72
2022-10-13T02:00:54.465Z,100960.61
2022-10-13T02:02:15.182Z,100957.92
2022-10-13T02:03:31.017Z,100960.61
2022-10-13T02:04:58.748Z,100960.61
2022-10-13T02:06:09.288Z,100961.45
2022-10-13T02:07:14.378Z,100929.67
2022-10-13T02:08:33.797Z,100954.36
2022-10-13T02:10:00.295Z,100955.24
2022-10-13T02:11:16.109Z,100957.05
2022-10-13T02:12:40.925Z,100957.05
2022-10-13T02:14:04.663Z,100960.61
2022-10-13T02:15:16.693Z,100961.45
2022-10-13T02:16:25.497Z,100956.09
2022-10-13T02:17:35.832Z,100956.09
2022-10-13T02:18:41.139Z,100955.10
2022-10-13T02:19:45.437Z,100952.42
2022-10-13T02:21:06.009Z,100955.10
2022-10-13T02:22:01.156Z,100959.51
2022-10-13T02:23:13.745Z,100959.51
2022-10-13T02:24:15.741Z,100954.15
2022-10-13T02:25:20.987Z,100959.51
2022-10-13T02:26:25.998Z,100959.51
2022-10-13T02:27:30.165Z,100958.52
2022-10-13T02:28:34.304Z,100958.52
2022-10-13T02:29:51.982Z,100961.20
2022-10-13T02:30:59.165Z,100962.89
2022-10-13T02:32:05.353Z,100962.89
2022-10-13T02:34:23.903Z,100959.36
2022-10-13T02:35:31.414Z,100959.51
2022-10-13T02:36:35.232Z,100956.69
2022-10-13T02:36:37.525Z,100964.87
2022-10-13T02:37:41.562Z,100962.19
2022-10-13T02:38:47.337Z,100967.55
2022-10-13T02:39:54.308Z,100965.72
2022-10-13T02:41:03.353Z,100965.72
2022-10-13T02:42:07.511Z,100967.41
2022-10-13T02:43:17.315Z,100964.87
2022-10-13T02:44:23.046Z,100967.55
2022-10-13T02:45:28.648Z,100967.55
2022-10-13T02:46:32.694Z,100964.12
2022-10-13T02:48:03.793Z,100964.12
2022-10-13T02:48:59.974Z,100964.12
2022-10-13T02:49:54.776Z,100965.83
2022-10-13T02:50:59.970Z,100965.83
2022-10-13T02:52:03.919Z,100964.98
2022-10-13T02:53:10.314Z,100966.81
2022-10-13T02:54:16.222Z,100956.09
2022-10-13T02:55:19.766Z,100956.09
2022-10-13T02:56:23.677Z,100961.45
2022-10-13T02:57:28.970Z,100958.77
2022-10-13T02:58:32.814Z,100960.46
2022-10-13T02:59:36.767Z,100959.51
2022-10-13T03:00:40.873Z,100959.51
2022-10-13T03:01:44.879Z,100960.46
2022-10-13T03:02:50.390Z,100961.20
2022-10-13T03:03:54.420Z,100961.20
2022-10-13T03:04:58.432Z,100956.83
2022-10-13T03:06:02.799Z,100956.83
2022-10-13T03:07:06.820Z,100962.05
2022-10-13T03:08:11.000Z,100960.35
2022-10-13T03:09:14.967Z,100966.56
2022-10-13T03:10:18.995Z,100960.21
2022-10-13T03:11:24.549Z,100963.98
2022-10-13T03:12:30.035Z,100966.56
2022-10-13T03:13:33.969Z,100961.45
2022-10-13T03:14:39.476Z,100961.31
2022-10-13T03:15:43.409Z,100954.99
2022-10-13T03:16:47.649Z,100960.35
2022-10-13T03:55:04.747Z,100969.02
2022-10-13T03:56:12.601Z,100969.86
2022-10-13T03:57:16.538Z,100972.41
2022-10-13T03:58:21.810Z,100968.77
2022-10-13T03:59:25.846Z,100966.94
2022-10-13T04:00:29.716Z,100966.80
2022-10-13T04:01:34.514Z,100971.06
2022-10-13T04:02:40.075Z,100975.58
2022-10-13T04:03:43.992Z,100975.58
2022-10-13T04:04:50.330Z,100973.63
2022-10-13T04:05:55.301Z,100973.39
2022-10-13T04:06:59.200Z,100969.72
2022-10-13T04:08:03.175Z,100975.08
2022-10-13T04:09:07.166Z,100975.95
2022-10-13T04:10:11.691Z,100980.44
2022-10-13T04:11:16.827Z,100979.48
2022-10-13T04:12:24.713Z,100986.53
2022-10-13T04:13:31.596Z,100976.80
2022-10-13T04:14:35.475Z,100981.17
2022-10-13T04:15:43.035Z,100955.63
2022-10-13T04:16:47.418Z,100982.16
2022-10-13T04:17:51.336Z,100987.52
2022-10-13T04:19:01.642Z,100978.49
2022-10-13T04:20:06.530Z,100985.58
2022-10-13T04:21:12.711Z,100983.85
2022-10-13T04:22:16.637Z,100988.26
2022-10-13T04:23:20.548Z,100984.70
2022-10-13T04:24:24.421Z,100977.54
2022-10-13T04:25:28.261Z,100981.91
2022-10-13T04:26:41.744Z,100984.48
2022-10-13T04:27:42.147Z,100976.55
2022-10-13T04:28:48.076Z,100995.31
2022-10-13T04:29:53.960Z,100980.22
2022-10-13T04:31:01.187Z,100986.28
2022-10-13T04:32:05.155Z,100982.76
2022-10-13T04:33:09.088Z,100982.76
2022-10-13T04:34:12.998Z,100988.97
2022-10-13T04:35:16.999Z,100978.14
2022-10-13T04:36:21.853Z,100986.03
2022-10-13T04:37:26.091Z,100986.03
2022-10-13T04:38:29.942Z,100978.00
2022-10-13T04:39:36.597Z,100983.14
2022-10-13T04:40:39.680Z,100983.14
2022-10-13T04:41:43.525Z,100988.11
2022-10-13T04:42:49.016Z,100989.58
2022-10-13T04:43:55.432Z,100985.41
2022-10-13T04:45:00.995Z,100984.80
2022-10-13T04:46:09.734Z,100986.02
2022-10-13T04:47:15.228Z,100988.67
2022-10-13T04:48:19.073Z,100982.80
2022-10-13T04:49:23.003Z,100987.42
2022-10-13T04:50:35.019Z,100987.42
2022-10-13T04:51:35.695Z,100987.76
2022-10-13T04:52:46.010Z,100984.96
2022-10-13T04:53:54.379Z,100988.38
2022-10-13T04:54:55.696Z,100988.38
2022-10-13T04:56:30.489Z,100993.74
2022-10-13T04:57:50.335Z,100995.44
2022-10-13T04:58:36.168Z,100995.44
2022-10-13T04:59:49.007Z,100999.11
2022-10-13T05:00:56.706Z,100999.11
2022-10-13T05:03:14.874Z,100999.11
2022-10-13T05:21:41.089Z,101005.98
2022-10-13T05:22:55.241Z,101004.98
2022-10-13T05:24:07.415Z,101004.98
2022-10-13T05:25:12.779Z,100998.41
2022-10-13T05:26:19.766Z,101003.52
2022-10-13T05:27:25.177Z,101006.06
2022-10-13T05:28:30.380Z,101001.42
2022-10-13T05:29:34.619Z,101008.62
2022-10-13T05:30:41.731Z,101008.62
2022-10-13T05:31:45.744Z,101005.69
2022-10-13T05:32:53.759Z,101006.42
2022-10-13T05:33:56.486Z,101005.44
2022-10-13T05:35:00.385Z,101006.28
2022-10-13T05:36:09.112Z,101007.02
2022-10-13T05:37:19.354Z,101007.86
2022-10-13T05:38:30.652Z,101009.58
2022-10-13T05:41:08.455Z,101019.06
2022-10-13T07:10:27.655Z,101051.68
2022-10-13T07:12:23.398Z,101050.14
2022-10-13T07:18:26.041Z,101043.77
2022-10-13T07:19:49.452Z,101050.09
2022-10-13T07:21:55.492Z,101047.97
2022-10-13T07:24:13.288Z,101050.09
2022-10-13T07:24:22.051Z,101052.84
2022-10-13T07:25:26.123Z,101048.87
2022-10-13T07:26:30.173Z,101046.63
2022-10-13T07:27:35.104Z,101043.94
2022-10-13T07:28:41.361Z,101043.94
2022-10-13T07:29:46.558Z,101047.74
2022-10-13T07:30:52.620Z,101047.74
2022-10-13T07:31:56.511Z,101053.45
2022-10-13T07:33:00.489Z,101049.63
2022-10-13T07:34:04.471Z,101052.89
2022-10-13T07:35:10.441Z,101046.23
2022-10-13T07:36:14.696Z,101051.20
2022-10-13T07:37:20.493Z,101042.73
2022-10-13T07:38:24.853Z,101040.51
2022-10-13T07:39:28.777Z,101040.51
2022-10-13T07:40:34.987Z,101043.35
2022-10-13T07:41:38.842Z,101043.35
2022-10-13T07:42:42.783Z,101048.73
2022-10-13T07:43:58.869Z,101049.17
2022-10-13T07:45:02.878Z,101046.48
2022-10-13T07:46:08.177Z,101046.48
2022-10-13T07:47:12.089Z,101051.30
2022-10-13T07:48:15.987Z,101050.17
2022-10-13T07:49:20.006Z,101051.58
2022-10-13T07:50:24.057Z,101051.58
2022-10-13T07:51:27.927Z,101051.03
2022-10-13T07:52:34.911Z,101057.55
2022-10-13T07:53:39.015Z,101051.32
2022-10-13T07:54:44.546Z,101061.80
2022-10-13T07:55:50.582Z,101055.29
2022-10-13T07:56:56.581Z,101055.29
2022-10-13T07:58:03.874Z,101057.70
2022-10-13T07:59:13.396Z,101058.41
2022-10-13T08:00:15.752Z,101052.74
2022-10-13T08:01:24.809Z,101056.84
2022-10-13T08:02:25.638Z,101054.02
2022-10-13T08:03:30.518Z,101035.99
2022-10-13T08:04:35.969Z,101063.21
2022-10-13T08:05:41.272Z,101053.02
2022-10-13T08:06:45.343Z,101045.91
2022-10-13T08:08:00.903Z,101047.63
2022-10-13T08:09:25.057Z,101065.20
2022-10-13T08:10:26.563Z,101065.20
2022-10-13T08:11:33.624Z,101053.16
2022-10-13T08:12:38.997Z,101046.21
2022-10-13T08:13:48.807Z,101046.21
2022-10-13T08:14:54.409Z,101050.75
2022-10-13T08:16:12.509Z,101052.45
2022-10-13T08:17:12.143Z,101052.45
2022-10-13T08:18:16.204Z,101052.58
2022-10-13T08:19:22.888Z,101049.04
2022-10-13T08:20:36.183Z,101049.04
2022-10-13T08:21:59.661Z,101056.96
2022-10-13T08:22:56.411Z,101046.47
2022-10-13T08:24:01.844Z,100974.21
2022-10-13T08:25:06.174Z,101052.12
2022-10-13T08:26:18.828Z,101048.45
2022-10-13T08:27:32.824Z,101053.39
2022-10-13T08:28:30.884Z,101053.39
2022-10-13T08:29:34.941Z,101048.42
2022-10-13T08:30:39.175Z,101048.42
2022-10-13T08:31:43.561Z,101050.39
2022-10-13T08:32:47.714Z,101050.39
2022-10-13T08:33:51.668Z,101051.81
2022-10-13T08:34:55.701Z,101047.10
2022-10-13T08:35:59.668Z,101049.53
2022-10-13T08:37:04.091Z,101056.62
2022-10-13T08:38:10.041Z,101043.84
2022-10-13T08:39:14.171Z,101046.24
2022-10-13T08:40:21.074Z,101046.66
2022-10-13T08:41:27.970Z,101050.74
2022-10-13T08:42:31.930Z,101049.47
2022-10-13T08:43:45.261Z,101049.47
2022-10-13T08:45:54.051Z,101053.28
2022-10-13T08:47:12.848Z,101052.61
2022-10-13T08:48:31.739Z,101048.90
2022-10-13T08:49:35.934Z,101046.91
2022-10-13T08:50:42.947Z,101045.91
2022-10-13T08:51:46.960Z,101050.59
2022-10-13T08:53:03.003Z,101052.72
2022-10-13T08:54:07.048Z,101049.85
2022-10-13T08:55:15.156Z,101054.27
2022-10-13T08:56:22.195Z,101048.00
2022-10-13T08:57:26.273Z,101046.85
2022-10-13T08:58:34.535Z,101047.73
2022-10-13T08:59:38.574Z,101047.73
2022-10-13T09:00:42.786Z,101055.36
2022-10-13T09:01:46.912Z,101051.51
2022-10-13T09:02:54.950Z,101051.51
2022-10-13T09:04:10.781Z,101048.51
2022-10-13T09:05:17.659Z,101048.51
2022-10-13T09:06:36.470Z,101048.51
2022-10-13T09:07:43.064Z,101054.61
2022-10-13T09:09:09.065Z,101053.91
2022-10-13T09:10:12.332Z,101053.91
2022-10-13T09:11:16.294Z,101052.22
2022-10-13T09:12:23.198Z,101057.92
2022-10-13T09:13:27.173Z,101059.77
2022-10-13T09:14:46.481Z,101055.36
2022-10-13T10:12:37.723Z,101039.31
2022-10-13T10:13:51.249Z,101039.31
2022-10-13T10:14:50.780Z,101039.84
2022-10-13T10:16:03.281Z,100702.82
2022-10-13T10:17:14.728Z,100702.82
2022-10-13T10:18:34.808Z,101039.21
2022-10-13T10:19:59.874Z,101039.21
2022-10-13T10:21:06.837Z,101038.05
2022-10-13T10:22:16.651Z,101036.90
2022-10-13T10:23:41.258Z,101035.07
2022-10-13T10:25:07.388Z,101038.62
2022-10-13T10:26:31.652Z,101037.78
2022-10-13T10:27:43.548Z,101037.78
2022-10-13T10:29:04.136Z,101030.66
2022-10-13T10:30:11.136Z,101033.22
2022-10-13T10:31:20.870Z,101035.74
2022-10-13T10:32:42.923Z,101035.74
2022-10-13T10:33:49.789Z,101031.18
2022-10-13T10:35:14.858Z,101027.11
2022-10-13T10:36:21.971Z,101029.81
2022-10-13T10:37:48.415Z,101029.81
2022-10-13T10:38:57.483Z,101028.80
2022-10-13T10:40:13.109Z,101017.98
2022-10-13T10:41:45.921Z,101027.42
2022-10-13T10:42:58.363Z,101023.56
2022-10-13T10:44:05.287Z,101022.72
2022-10-13T10:45:17.957Z,101010.05
2022-10-13T10:46:29.107Z,101006.51
2022-10-13T10:47:39.101Z,101014.44
2022-10-13T10:48:45.641Z,101007.03
2022-10-13T10:49:51.242Z,101019.53
2022-10-13T10:50:56.652Z,101018.55
2022-10-13T10:52:03.553Z,101018.55
2022-10-13T10:53:19.375Z,101013.98
2022-10-13T10:54:27.938Z,101013.98
2022-10-13T12:19:11.555Z,100984.05
2022-10-13T12:20:21.786Z,100983.02
2022-10-13T12:24:31.632Z,100978.86
2022-10-13T12:25:38.588Z,100980.95
2022-10-13T12:25:49.960Z,100983.02
2022-10-13T12:26:44.370Z,100979.80
2022-10-13T12:27:53.101Z,100974.09
2022-10-13T12:30:35.321Z,100975.28
2022-10-13T12:31:43.594Z,100981.35
2022-10-13T12:32:49.835Z,100977.81
2022-10-13T12:33:56.727Z,100976.97
2022-10-13T12:35:21.989Z,100985.77
2022-10-13T12:36:34.297Z,100973.26
2022-10-13T12:37:38.441Z,100971.57
2022-10-13T12:38:55.744Z,100972.72
2022-10-13T12:43:29.572Z,100974.00
2022-10-13T13:01:29.369Z,100979.64
2022-10-13T13:10:41.131Z,100970.95
2022-10-13T13:15:14.357Z,100964.72
2022-10-13T13:22:11.047Z,100971.55
2022-10-13T13:24:41.014Z,100965.31
2022-10-13T13:25:51.865Z,100975.22
2022-10-13T13:42:41.901Z,100960.53
2022-10-13T13:43:10.745Z,100961.38
2022-10-13T13:44:27.485Z,100961.38
2022-10-13T13:46:58.200Z,100966.17
2022-10-13T13:48:06.520Z,100966.17
2022-10-13T13:53:38.977Z,100957.91
2022-10-13T13:54:48.417Z,100799.97
2022-10-13T14:51:16.557Z,100938.95
2022-10-13T14:53:48.943Z,100938.38
2022-10-13T14:54:54.640Z,100931.31
2022-10-13T14:55:58.529Z,100942.08
2022-10-13T14:57:05.647Z,100942.08
2022-10-13T14:58:11.949Z,100934.12
2022-10-13T14:59:16.248Z,100924.38
2022-10-13T15:00:20.584Z,100937.94
2022-10-13T15:01:26.694Z,100937.94
2022-10-13T15:02:30.837Z,100925.63
2022-10-13T15:03:36.379Z,100925.63
2022-10-13T15:04:40.995Z,100928.47
2022-10-13T15:05:44.993Z,100932.12
2022-10-13T15:06:48.977Z,100930.44
2022-10-13T15:07:52.915Z,100930.44
2022-10-13T15:08:57.431Z,100928.75
2022-10-13T15:10:05.494Z,100926.17
2022-10-13T15:11:10.554Z,100933.40
2022-10-13T15:12:14.265Z,100930.70
2022-10-13T15:13:18.131Z,100928.98
2022-10-13T15:14:22.088Z,100934.36
2022-10-13T15:15:29.513Z,100928.30
2022-10-13T15:16:38.647Z,100931.83
2022-10-13T15:17:45.988Z,100930.98
2022-10-13T15:18:50.280Z,100930.98
2022-10-13T15:19:56.801Z,100926.73
2022-10-13T15:21:04.687Z,100936.61
2022-10-13T15:22:08.664Z,100936.61
2022-10-13T15:23:12.610Z,100927.02
2022-10-13T15:24:16.553Z,100928.82
2022-10-13T15:25:20.464Z,100927.86
2022-10-13T15:26:24.710Z,100927.86
2022-10-13T15:27:42.991Z,100922.48
2022-10-13T16:26:41.412Z,100942.76
2022-10-13T16:56:48.620Z,100923.78
2022-10-13T17:34:26.032Z,100926.70
2022-10-13T17:35:31.989Z,100932.67
2022-10-13T17:36:36.383Z,100928.14
2022-10-13T17:37:40.350Z,100929.02
2022-10-13T17:38:45.149Z,100927.30
2022-10-13T17:39:57.915Z,100929.02
2022-10-13T17:41:02.621Z,100929.02
2022-10-13T17:42:07.246Z,100928.03
2022-10-13T17:43:11.281Z,100929.87
2022-10-13T17:44:15.224Z,100927.30
2022-10-13T17:45:23.339Z,100927.30
2022-10-13T17:46:38.291Z,100915.86
2022-10-13T17:47:34.680Z,100927.45
2022-10-13T17:48:39.394Z,100927.57
2022-10-13T17:49:43.336Z,100926.84
2022-10-13T17:50:48.824Z,100926.84
2022-10-13T17:51:54.543Z,100926.15
2022-10-13T17:52:58.524Z,100926.15
2022-10-13T17:54:12.934Z,100930.91
2022-10-13T17:55:11.714Z,100931.91
2022-10-13T17:56:18.742Z,100931.91
2022-10-13T17:57:23.952Z,100930.22
2022-10-13T17:58:29.365Z,100930.22
2022-10-13T17:59:34.835Z,100931.45
2022-10-13T18:01:00.746Z,100930.60
2022-10-13T18:01:45.426Z,100926.34
2022-10-13T18:02:49.639Z,100938.05
2022-10-13T18:03:57.724Z,100936.35
2022-10-13T18:05:01.844Z,100934.63
2022-10-13T18:06:07.521Z,100938.20
2022-10-13T18:07:14.037Z,100938.20
2022-10-13T18:08:18.020Z,100934.52
2022-10-13T18:09:22.554Z,100935.36
2022-10-13T18:10:26.669Z,100936.23
2022-10-13T18:11:30.762Z,100932.67
2022-10-13T18:12:38.052Z,100932.67
2022-10-13T18:13:44.608Z,100932.56
2022-10-13T18:14:50.279Z,100928.87
2022-10-13T18:15:55.915Z,100932.30
2022-10-13T18:17:01.074Z,100929.48
2022-10-13T18:18:12.794Z,100932.02
2022-10-13T18:19:12.420Z,100932.02
2022-10-13T18:20:16.580Z,100931.06
2022-10-13T18:21:23.154Z,100933.75
2022-10-13T18:22:27.540Z,100934.70
2022-10-13T18:23:35.896Z,100934.70
2022-10-13T18:24:39.931Z,100930.60
2022-10-13T18:25:44.006Z,100926.34
2022-10-13T18:26:49.519Z,100936.23
2022-10-13T18:27:53.527Z,100938.20
2022-10-13T18:28:58.423Z,100939.03
2022-10-13T18:30:04.517Z,100931.95
2022-10-13T18:31:13.171Z,100815.22
2022-10-13T18:32:17.202Z,100939.16
2022-10-13T18:33:21.220Z,100931.10
2022-10-13T18:34:25.327Z,100941.84
2022-10-13T18:35:32.958Z,100931.22
2022-10-13T18:36:42.232Z,100931.22
2022-10-13T18:37:49.153Z,100941.23
2022-10-13T18:38:55.066Z,100941.23
2022-10-13T18:39:59.156Z,100945.87
2022-10-13T18:41:03.228Z,100945.17
2022-10-13T18:42:28.934Z,100938.08
2022-10-13T18:43:34.728Z,100931.87
2022-10-13T19:00:59.426Z,100944.09
2022-10-13T19:06:10.003Z,100935.34
2022-10-13T19:14:41.532Z,100943.72
2022-10-13T19:17:24.968Z,100735.88
2022-10-13T19:21:29.800Z,100942.28
2022-10-13T19:37:45.118Z,100941.35
2022-10-13T20:04:59.425Z,100953.86
2022-10-13T20:06:06.532Z,100957.02
2022-10-13T20:07:10.457Z,100956.75
2022-10-13T20:08:14.308Z,100953.08
2022-10-13T20:09:19.006Z,100954.80
2022-10-13T20:10:23.806Z,100960.17
2022-10-13T20:11:27.781Z,100954.80
2022-10-13T20:12:31.626Z,100961.12
2022-10-13T20:13:37.534Z,100965.65
2022-10-13T20:14:43.079Z,100965.65
2022-10-13T20:15:48.439Z,100959.44
2022-10-13T20:16:52.357Z,100960.28
2022-10-13T20:17:56.208Z,100957.75
2022-10-13T20:19:01.586Z,100929.52
2022-10-13T20:20:06.651Z,100957.02
2022-10-13T20:21:13.374Z,100951.65
2022-10-13T20:22:17.222Z,100955.30
2022-10-13T20:23:22.613Z,100956.17
2022-10-13T20:24:26.546Z,100955.30
2022-10-13T20:25:30.466Z,100960.66
2022-10-13T20:26:34.561Z,100960.66
2022-10-13T20:27:38.458Z,100957.02
2022-10-13T20:28:44.348Z,100963.34
2022-10-13T20:29:49.905Z,100966.91
2022-10-13T20:30:56.981Z,100958.97
2022-10-13T20:32:00.918Z,100962.65
2022-10-13T20:33:04.877Z,100960.92
2022-10-13T20:34:10.365Z,100960.92
2022-10-13T20:35:14.369Z,100960.20
2022-10-13T20:36:19.906Z,100963.75
2022-10-13T20:37:24.095Z,100959.50
2022-10-13T20:38:30.467Z,100958.50
2022-10-13T20:39:34.535Z,100958.50
2022-10-13T20:40:38.459Z,100958.50
2022-10-13T20:41:43.897Z,100958.50
2022-10-13T20:42:52.494Z,100961.19
2022-10-13T20:43:59.772Z,100953.28
2022-10-13T20:45:03.795Z,100957.77
2022-10-13T20:46:12.826Z,100960.61
2022-10-13T20:47:16.687Z,100957.08
2022-10-13T20:48:20.572Z,100957.08
2022-10-13T20:49:24.530Z,100964.25
2022-10-13T20:50:28.522Z,100960.61
2022-10-13T20:51:32.468Z,100955.35
2022-10-13T20:52:37.716Z,100953.66
2022-10-13T20:53:43.872Z,100956.34
2022-10-13T20:54:47.799Z,100956.34
2022-10-13T20:55:59.173Z,100955.35
2022-10-13T20:57:03.018Z,100955.50
2022-10-13T20:58:06.904Z,100951.94
2022-10-13T20:59:13.142Z,100956.61
2022-10-13T21:00:18.013Z,100954.89
2022-10-13T21:01:23.630Z,100961.24
2022-10-13T21:02:27.616Z,100952.34
2022-10-13T21:03:33.465Z,100952.34
2022-10-13T21:04:37.400Z,100956.87
2022-10-13T21:05:41.239Z,100954.19
2022-10-13T21:06:47.934Z,100955.87
2022-10-13T21:07:54.965Z,100956.87
2022-10-13T21:21:25.248Z,100959.88
2022-10-13T21:23:59.359Z,100954.20
2022-10-13T21:25:10.216Z,100953.36
2022-10-13T21:26:20.366Z,100953.36
2022-10-13T21:32:42.692Z,100956.66
2022-10-13T21:34:07.984Z,100957.36
2022-10-13T21:39:06.914Z,100958.34
2022-10-13T21:41:42.190Z,100956.66
2022-10-13T21:44:30.223Z,100955.67
2022-10-13T22:04:22.143Z,100961.45
2022-10-13T22:05:08.982Z,100962.30
2022-10-13T22:20:28.010Z,100959.39
2022-10-13T22:21:41.532Z,100955.98
2022-10-13T22:22:44.627Z,100956.97
2022-10-13T22:37:02.269Z,100955.06
2022-10-13T22:38:06.162Z,100951.39
2022-10-13T22:39:10.982Z,100969.17
2022-10-13T22:40:14.981Z,100959.32
2022-10-13T22:41:20.843Z,100957.34
2022-10-13T22:42:24.866Z,100957.08
2022-10-13T22:43:30.434Z,100958.81
2022-10-13T22:44:35.809Z,100955.98
2022-10-13T22:45:39.760Z,100957.70
2022-10-13T22:46:43.733Z,100959.39
2022-10-13T22:47:51.767Z,100956.72
2022-10-13T22:48:57.303Z,100962.81
2022-10-13T22:50:01.200Z,100960.97
2022-10-13T22:51:06.422Z,100954.66
2022-10-13T22:52:10.331Z,100962.55
2022-10-13T22:53:14.247Z,100955.50
2022-10-13T22:54:20.586Z,100955.50
2022-10-13T22:55:24.443Z,100955.50
2022-10-13T22:56:30.731Z,100959.88
2022-10-13T22:57:44.365Z,100955.50
2022-10-13T22:58:45.387Z,100963.55
2022-10-13T22:59:49.072Z,100966.23
2022-10-13T23:00:53.264Z,100960.86
2022-10-13T23:01:58.487Z,100963.66
2022-10-13T23:03:02.506Z,100974.64
2022-10-13T23:04:07.102Z,100965.75
2022-10-13T23:05:10.963Z,100972.07
2022-10-13T23:06:23.461Z,100972.22
2022-10-13T23:07:24.468Z,100966.70
2022-10-13T23:08:28.547Z,100966.01
2022-10-13T23:09:32.475Z,100968.69
2022-10-13T23:10:39.303Z,100970.49
2022-10-13T23:11:45.179Z,100975.01
2022-10-13T23:12:48.761Z,100976.00
2022-10-13T23:13:52.627Z,100972.33
2022-10-13T23:14:56.531Z,100966.97
2022-10-13T23:16:03.833Z,100969.64
2022-10-13T23:17:07.797Z,100965.13
2022-10-13T23:18:11.837Z,100965.13
2022-10-13T23:19:15.881Z,100970.49
2022-10-13T23:20:30.801Z,100971.48
2022-10-13T23:21:28.317Z,100965.27
2022-10-13T23:22:32.297Z,100965.27
2022-10-13T23:23:36.330Z,100967.22
2022-10-13T23:24:41.852Z,100963.70
2022-10-13T23:25:45.818Z,100967.36
2022-10-13T23:26:49.828Z,100967.48
2022-10-13T23:27:53.708Z,100968.32
2022-10-13T23:29:00.714Z,100968.32
2022-10-13T23:30:05.384Z,100966.63
2022-10-13T23:31:14.637Z,100965.89
2022-10-13T23:32:18.569Z,100965.89
2022-10-13T23:33:22.436Z,100972.25
2022-10-13T23:34:26.396Z,100969.67
2022-10-13T23:35:30.348Z,100969.67
2022-10-13T23:36:34.422Z,100962.63
2022-10-13T23:37:38.366Z,100959.94
2022-10-13T23:38:42.301Z,100955.54
2022-10-13T23:39:46.235Z,100960.90
2022-10-13T23:40:53.181Z,100961.89
2022-10-13T23:42:00.249Z,100961.89
2022-10-13T23:43:05.773Z,100960.90
2022-10-13T23:46:55.362Z,100953.73
2022-10-13T23:48:02.938Z,100953.73
2022-10-13T23:49:07.573Z,100953.84
2022-10-13T23:50:16.416Z,100953.84
2022-10-13T23:51:23.093Z,100949.47
2022-10-13T23:52:32.436Z,100953.00
2022-10-13T23:53:40.126Z,100953.00
2022-10-13T23:54:45.351Z,100952.86
